Betancuria — EAMH — position and weather

sailwx.info

Track history (hours):
 
Tides and Currents Weather Stations Pressure Air Temp Water Temp Dewpoint Dewpoint Depression Visibility Wind Speed Wind Dir Waves Ship Positions

Betancuria

Last reported at 2015-Jul-31 22:33 UTC. Time now 2015-Jul-31 23:32 UTC.
Position N 46°40' W 002°41'.

Length 141 m; draft 4.7 m.

Type: Ship. MMSI: 224471000.

Date/timePositionNaut miles runAvg speedWind from/ knotsBaromVisibWave heightAir tempDewpointWater temp
2015-Jul-31 22:33N 46°40' W 002°41'1010.5
2015-Jul-31 21:33N 46°51' W 002°42'11 9.9
2015-Jul-31 20:27N 47°02' W 002°38'1011.3
2015-Jul-31 19:33N 47°06' W 002°25'1611.3
2015-Jul-31 18:08N 47°18' W 002°08'22 2.0
2015-Jul-31 07:13N 47°12' W 001°37'0 0.0
2015-Jul-31 06:19N 47°12' W 001°37'0 0.0
2015-Jul-31 05:31N 47°12' W 001°37'0 0.0
2015-Jul-31 04:31N 47°12' W 001°37'0 0.0
2015-Jul-31 03:31N 47°12' W 001°37'0 0.0
2015-Jul-31 02:31N 47°12' W 001°37'0 0.0
2015-Jul-31 01:28N 47°12' W 001°37'0 0.0
2015-Jul-31 00:31N 47°12' W 001°37'0 0.0
2015-Jul-30 23:28N 47°12' W 001°37'0 0.0
2015-Jul-30 22:31N 47°12' W 001°37'0 0.0
2015-Jul-30 21:28N 47°12' W 001°37'0 0.0
2015-Jul-30 07:13N 47°12' W 001°37'0 0.0
2015-Jul-30 06:16N 47°12' W 001°37'0 0.0
2015-Jul-30 04:31N 47°12' W 001°37'0 0.0
2015-Jul-30 02:31N 47°12' W 001°37'0 0.0
2015-Jul-30 01:22N 47°12' W 001°37'1 1.7
2015-Jul-30 00:33N 47°12' W 001°39'1211.6
2015-Jul-29 23:32N 47°17' W 001°55'1311.9
2015-Jul-29 22:27N 47°15' W 002°14'910.4
2015-Jul-29 21:33N 47°07' W 002°22'3 1.6
2015-Jul-29 19:33N 47°07' W 002°26'0 0.0
2015-Jul-29 18:30N 47°07' W 002°26'0 0.0
2015-Jul-29 15:33N 47°07' W 002°26'  
2015-Jul-26 04:13N 42°01' W 009°03'7 9.9
2015-Jul-26 03:33N 41°55' W 009°05'10 9.8
2015-Jul-26 02:33N 41°45' W 009°08'10 9.7
2015-Jul-26 01:33N 41°36' W 009°12'12 9.6
2015-Jul-26 00:16N 41°24' W 009°15'7 9.3
2015-Jul-25 23:33N 41°17' W 009°17'9 8.9
2015-Jul-25 22:33N 41°09' W 009°19'20 8.8
2015-Jul-25 20:17N 40°49' W 009°24'90 8.9
2015-Jul-25 10:08N 39°21' W 009°51'5 8.2
2015-Jul-25 09:33N 39°16' W 009°51'8 8.5
2015-Jul-25 08:34N 39°08' W 009°51'8 8.3
2015-Jul-25 07:33N 38°60' W 009°50'9 8.7
2015-Jul-25 06:33N 38°51' W 009°51'8 8.3
2015-Jul-25 05:33N 38°43' W 009°50'8 8.1
2015-Jul-25 04:33N 38°35' W 009°48'8 7.8
2015-Jul-25 03:33N 38°27' W 009°46'8 8.2
2015-Jul-25 02:33N 38°19' W 009°43'8 8.0
2015-Jul-25 01:33N 38°11' W 009°41'9 8.0
2015-Jul-25 00:29N 38°03' W 009°39'8 8.2
2015-Jul-24 23:32N 37°55' W 009°37'8 8.5
2015-Jul-24 22:33N 37°47' W 009°34'9 8.9
2015-Jul-24 21:33N 37°39' W 009°32'9 9.1
2015-Jul-24 20:32N 37°30' W 009°30'9 9.2
2015-Jul-24 19:30N 37°20' W 009°27'9 9.1
2015-Jul-24 18:33N 37°12' W 009°24'186 9.3
2015-Jul-23 22:29N 35°59' W 005°51'231 8.8
2015-Jul-22 20:06N 37°06' W 001°15'810.9
2015-Jul-22 19:20N 37°11' W 001°08'1110.6
2015-Jul-22 18:17N 37°19' W 000°57'810.4
2015-Jul-22 17:33N 37°24' W 000°50'1210.6
2015-Jul-22 16:25N 37°31' W 000°39'8 9.1
2015-Jul-22 15:33N 37°38' W 000°34'1010.2
2015-Jul-22 14:32N 37°48' W 000°38'1010.0
2015-Jul-22 13:33N 37°58' W 000°41'0 0.1
2015-Jul-22 11:19N 37°58' W 000°41'0 0.0
2015-Jul-22 07:20N 37°58' W 000°41'0 0.0
2015-Jul-22 06:26N 37°58' W 000°41'0 0.0
2015-Jul-22 05:33N 37°58' W 000°41'0 0.0
2015-Jul-22 04:31N 37°58' W 000°41'0 0.0
2015-Jul-22 03:30N 37°58' W 000°41'0 0.0
2015-Jul-22 02:22N 37°58' W 000°41'0 0.0
2015-Jul-22 01:33N 37°58' W 000°41'0 0.0
2015-Jul-22 00:29N 37°58' W 000°41'0 0.0
2015-Jul-21 23:22N 37°58' W 000°41'  
Track history (hours):
 
Tides and Currents Weather Stations Pressure Air Temp Water Temp Dewpoint Dewpoint Depression Visibility Wind Speed Wind Dir Waves Ship Positions

Betancuria

Last reported at 2015-Jul-31 22:33 UTC. Time now 2015-Jul-31 23:32 UTC.
Position N 46°40' W 002°41'.

Length 141 m; draft 4.7 m.

Type: Ship. MMSI: 224471000.

Date/timePositionNaut miles runAvg speedWind from/ knotsBaromVisibWave heightAir tempDewpointWater temp
2015-Jul-31 22:33N 46°40' W 002°41'1010.5
2015-Jul-31 21:33N 46°51' W 002°42'11 9.9
2015-Jul-31 20:27N 47°02' W 002°38'1011.3
2015-Jul-31 19:33N 47°06' W 002°25'1611.3
2015-Jul-31 18:08N 47°18' W 002°08'22 2.0
2015-Jul-31 07:13N 47°12' W 001°37'0 0.0
2015-Jul-31 06:19N 47°12' W 001°37'0 0.0
2015-Jul-31 05:31N 47°12' W 001°37'0 0.0
2015-Jul-31 04:31N 47°12' W 001°37'0 0.0
2015-Jul-31 03:31N 47°12' W 001°37'0 0.0
2015-Jul-31 02:31N 47°12' W 001°37'0 0.0
2015-Jul-31 01:28N 47°12' W 001°37'0 0.0
2015-Jul-31 00:31N 47°12' W 001°37'0 0.0
2015-Jul-30 23:28N 47°12' W 001°37'0 0.0
2015-Jul-30 22:31N 47°12' W 001°37'0 0.0
2015-Jul-30 21:28N 47°12' W 001°37'0 0.0
2015-Jul-30 07:13N 47°12' W 001°37'0 0.0
2015-Jul-30 06:16N 47°12' W 001°37'0 0.0
2015-Jul-30 04:31N 47°12' W 001°37'0 0.0
2015-Jul-30 02:31N 47°12' W 001°37'0 0.0
2015-Jul-30 01:22N 47°12' W 001°37'1 1.7
2015-Jul-30 00:33N 47°12' W 001°39'1211.6
2015-Jul-29 23:32N 47°17' W 001°55'1311.9
2015-Jul-29 22:27N 47°15' W 002°14'910.4
2015-Jul-29 21:33N 47°07' W 002°22'3 1.6
2015-Jul-29 19:33N 47°07' W 002°26'0 0.0
2015-Jul-29 18:30N 47°07' W 002°26'0 0.0
2015-Jul-29 15:33N 47°07' W 002°26'  
2015-Jul-26 04:13N 42°01' W 009°03'7 9.9
2015-Jul-26 03:33N 41°55' W 009°05'10 9.8
2015-Jul-26 02:33N 41°45' W 009°08'10 9.7
2015-Jul-26 01:33N 41°36' W 009°12'12 9.6
2015-Jul-26 00:16N 41°24' W 009°15'7 9.3
2015-Jul-25 23:33N 41°17' W 009°17'9 8.9
2015-Jul-25 22:33N 41°09' W 009°19'20 8.8
2015-Jul-25 20:17N 40°49' W 009°24'90 8.9
2015-Jul-25 10:08N 39°21' W 009°51'5 8.2
2015-Jul-25 09:33N 39°16' W 009°51'8 8.5
2015-Jul-25 08:34N 39°08' W 009°51'8 8.3
2015-Jul-25 07:33N 38°60' W 009°50'9 8.7
2015-Jul-25 06:33N 38°51' W 009°51'8 8.3
2015-Jul-25 05:33N 38°43' W 009°50'8 8.1
2015-Jul-25 04:33N 38°35' W 009°48'8 7.8
2015-Jul-25 03:33N 38°27' W 009°46'8 8.2
2015-Jul-25 02:33N 38°19' W 009°43'8 8.0
2015-Jul-25 01:33N 38°11' W 009°41'9 8.0
2015-Jul-25 00:29N 38°03' W 009°39'8 8.2
2015-Jul-24 23:32N 37°55' W 009°37'8 8.5
2015-Jul-24 22:33N 37°47' W 009°34'9 8.9
2015-Jul-24 21:33N 37°39' W 009°32'9 9.1
2015-Jul-24 20:32N 37°30' W 009°30'9 9.2
2015-Jul-24 19:30N 37°20' W 009°27'9 9.1
2015-Jul-24 18:33N 37°12' W 009°24'186 9.3
2015-Jul-23 22:29N 35°59' W 005°51'231 8.8
2015-Jul-22 20:06N 37°06' W 001°15'810.9
2015-Jul-22 19:20N 37°11' W 001°08'1110.6
2015-Jul-22 18:17N 37°19' W 000°57'810.4
2015-Jul-22 17:33N 37°24' W 000°50'1210.6
2015-Jul-22 16:25N 37°31' W 000°39'8 9.1
2015-Jul-22 15:33N 37°38' W 000°34'1010.2
2015-Jul-22 14:32N 37°48' W 000°38'1010.0
2015-Jul-22 13:33N 37°58' W 000°41'0 0.1
2015-Jul-22 11:19N 37°58' W 000°41'0 0.0
2015-Jul-22 07:20N 37°58' W 000°41'0 0.0
2015-Jul-22 06:26N 37°58' W 000°41'0 0.0
2015-Jul-22 05:33N 37°58' W 000°41'0 0.0
2015-Jul-22 04:31N 37°58' W 000°41'0 0.0
2015-Jul-22 03:30N 37°58' W 000°41'0 0.0
2015-Jul-22 02:22N 37°58' W 000°41'0 0.0
2015-Jul-22 01:33N 37°58' W 000°41'0 0.0
2015-Jul-22 00:29N 37°58' W 000°41'0 0.0
2015-Jul-21 23:22N 37°58' W 000°41'  

Dump ship's entire track history